PATK

Details ICAO PATK (TKA)
Name TALKEETNA
Region USA (Alaska)
Timezone America/Anchorage (UTC-9.0)
Plans Departing 24
Arriving 25
Stats Elevation 358 ft / 109 m (AMSL)
Location 62.320500° -150.094000°
Runways 1
Magnetic Variation 15.990° E
Sunrise 2018-12-18 19:27:26 UTC / 2018-12-18 10:27:26 Local
Sunset 2018-12-19 00:29:24 UTC / 2018-12-18 15:29:24 Local
Advertisement - Login to hide

Runways

ID Width Length Bearing (true/mag) Surface Threshold Overrun Markings Lighting
18 75 ft / 23 m 3,503 ft / 1,068 m 207.01° / 191.02° ASPHALT 0 ft / 0 m 0 ft / 0 m APP EDGE THRESHOLD
36 75 ft / 23 m 3,503 ft / 1,068 m 27.01° / 11.01° ASPHALT 0 ft / 0 m 0 ft / 0 m APP EDGE THRESHOLD

Map

Weather


0- 5 10 15 20 25 30 35+ Temperature / °C

Clouds and Precipitation
Forecast for 2018-12-18 18:00 UTC. Updated 2 minutes ago

Ground ~20,000 ft ~40,000 ft Winds

METAR

PATK 181453Z AUTO 00000KT 10SM OVC095 M08/M10 A2900 RMK AO2 SLP829 T10831100 55004 TSNO

TAF

PATK 181404Z 1814/1912 VRB03KT P6SM VCSH SCT006 BKN060 FM190200 02005KT P6SM BKN150

Frequencies

Approach 125.55 MHz APP-DEP Anchorage
Unicom 123.60 MHz CTAF
Recorded 135.20 MHz ASOS
Unicom 123.00 MHz UNICOM
Warning: Do not use this data for real-world aviation or navigation. No guarantee of current accuracy is given.